Terminal Aerodrome Forecast
Issued by NWS Sioux Falls, SD

Home | Current Version | Previous Version | Graphics & Text | Print | Product List | Glossary On
Versions: 1 2 3 4 5 6 7 8 9 10 11 12 13 14 15 16 17
905
FTUS43 KFSD 212333
TAFHON
TAF
KHON 212333Z 2200/2224 32013G19KT P6SM SCT090
     FM220200 VRB05KT P6SM SCT200
     FM221400 31007KT P6SM BKN090
     FM221800 33007KT P6SM -SHRA BKN050
     FM222200 34010KT P6SM BKN060=

USA.gov is the U.S. government's official web portal to all federal, state and local government web resources and services.